sensor_id;sensor_type;location;lat;lon;timestamp;P1;durP1;ratioP1;P2;durP2;ratioP2
41875;SDS011;27555;50.808;4.402;2023-05-10T00:01:37;17.65;;;6.32;;
41875;SDS011;27555;50.808;4.402;2023-05-10T00:04:03;13.70;;;6.60;;
41875;SDS011;27555;50.808;4.402;2023-05-10T00:06:28;13.30;;;6.63;;
41875;SDS011;27555;50.808;4.402;2023-05-10T00:08:55;11.30;;;5.53;;
41875;SDS011;27555;50.808;4.402;2023-05-10T00:11:20;15.35;;;6.38;;
41875;SDS011;27555;50.808;4.402;2023-05-10T00:13:46;12.90;;;6.00;;
41875;SDS011;27555;50.808;4.402;2023-05-10T00:16:12;15.73;;;5.93;;
41875;SDS011;27555;50.808;4.402;2023-05-10T00:18:38;16.08;;;6.45;;
41875;SDS011;27555;50.808;4.402;2023-05-10T00:21:04;11.88;;;6.10;;
41875;SDS011;27555;50.808;4.402;2023-05-10T00:23:30;12.23;;;6.55;;
41875;SDS011;27555;50.808;4.402;2023-05-10T00:25:56;13.63;;;5.88;;
41875;SDS011;27555;50.808;4.402;2023-05-10T00:28:21;16.63;;;6.70;;
41875;SDS011;27555;50.808;4.402;2023-05-10T00:30:47;13.90;;;5.65;;
41875;SDS011;27555;50.808;4.402;2023-05-10T00:33:13;13.88;;;6.18;;
41875;SDS011;27555;50.808;4.402;2023-05-10T00:35:40;10.43;;;5.75;;
41875;SDS011;27555;50.808;4.402;2023-05-10T00:38:06;13.25;;;6.20;;
41875;SDS011;27555;50.808;4.402;2023-05-10T00:40:31;14.15;;;6.72;;
41875;SDS011;27555;50.808;4.402;2023-05-10T00:42:57;18.77;;;7.00;;
41875;SDS011;27555;50.808;4.402;2023-05-10T00:45:25;15.63;;;8.15;;
41875;SDS011;27555;50.808;4.402;2023-05-10T00:47:51;16.15;;;6.72;;
41875;SDS011;27555;50.808;4.402;2023-05-10T00:50:20;18.00;;;6.70;;
41875;SDS011;27555;50.808;4.402;2023-05-10T00:52:47;17.17;;;7.50;;
41875;SDS011;27555;50.808;4.402;2023-05-10T00:55:13;12.30;;;6.32;;
41875;SDS011;27555;50.808;4.402;2023-05-10T00:57:38;15.50;;;7.65;;
41875;SDS011;27555;50.808;4.402;2023-05-10T01:00:05;14.27;;;7.53;;
41875;SDS011;27555;50.808;4.402;2023-05-10T01:02:31;14.43;;;6.93;;
41875;SDS011;27555;50.808;4.402;2023-05-10T01:04:59;13.88;;;7.30;;
41875;SDS011;27555;50.808;4.402;2023-05-10T01:07:26;16.33;;;7.90;;
41875;SDS011;27555;50.808;4.402;2023-05-10T01:09:52;15.60;;;7.30;;
41875;SDS011;27555;50.808;4.402;2023-05-10T01:12:17;22.13;;;7.75;;
41875;SDS011;27555;50.808;4.402;2023-05-10T01:14:43;15.57;;;8.45;;
41875;SDS011;27555;50.808;4.402;2023-05-10T01:17:09;16.70;;;8.27;;
41875;SDS011;27555;50.808;4.402;2023-05-10T01:19:37;20.52;;;8.90;;
41875;SDS011;27555;50.808;4.402;2023-05-10T01:25:01;21.90;;;8.63;;
41875;SDS011;27555;50.808;4.402;2023-05-10T01:27:47;21.52;;;8.70;;
41875;SDS011;27555;50.808;4.402;2023-05-10T01:33:28;17.83;;;8.45;;
41875;SDS011;27555;50.808;4.402;2023-05-10T01:41:28;16.15;;;8.00;;
41875;SDS011;27555;50.808;4.402;2023-05-10T01:44:10;15.75;;;8.65;;
41875;SDS011;27555;50.808;4.402;2023-05-10T01:46:53;11.55;;;7.70;;
41875;SDS011;27555;50.808;4.402;2023-05-10T01:49:44;22.00;;;10.15;;
41875;SDS011;27555;50.808;4.402;2023-05-10T01:52:15;15.15;;;8.75;;
41875;SDS011;27555;50.808;4.402;2023-05-10T01:54:54;14.77;;;8.75;;
41875;SDS011;27555;50.808;4.402;2023-05-10T01:57:28;19.42;;;8.52;;
41875;SDS011;27555;50.808;4.402;2023-05-10T02:00:07;20.52;;;9.65;;
41875;SDS011;27555;50.808;4.402;2023-05-10T02:02:35;17.92;;;8.48;;
41875;SDS011;27555;50.808;4.402;2023-05-10T02:05:03;16.80;;;8.30;;
41875;SDS011;27555;50.808;4.402;2023-05-10T02:07:31;19.55;;;9.93;;
41875;SDS011;27555;50.808;4.402;2023-05-10T02:10:00;18.25;;;9.43;;
41875;SDS011;27555;50.808;4.402;2023-05-10T02:12:32;15.93;;;9.55;;
41875;SDS011;27555;50.808;4.402;2023-05-10T02:15:02;18.25;;;10.05;;
41875;SDS011;27555;50.808;4.402;2023-05-10T02:17:30;18.23;;;9.82;;
41875;SDS011;27555;50.808;4.402;2023-05-10T02:19:57;17.80;;;10.07;;
41875;SDS011;27555;50.808;4.402;2023-05-10T02:22:25;18.08;;;9.40;;
41875;SDS011;27555;50.808;4.402;2023-05-10T02:24:52;22.17;;;10.20;;
41875;SDS011;27555;50.808;4.402;2023-05-10T02:27:20;20.17;;;9.65;;
41875;SDS011;27555;50.808;4.402;2023-05-10T02:29:48;14.98;;;8.80;;
41875;SDS011;27555;50.808;4.402;2023-05-10T02:32:16;19.35;;;8.43;;
41875;SDS011;27555;50.808;4.402;2023-05-10T02:34:42;20.00;;;9.35;;
41875;SDS011;27555;50.808;4.402;2023-05-10T02:37:10;17.75;;;8.48;;
41875;SDS011;27555;50.808;4.402;2023-05-10T02:39:39;15.85;;;7.22;;
41875;SDS011;27555;50.808;4.402;2023-05-10T02:42:09;18.17;;;7.80;;
41875;SDS011;27555;50.808;4.402;2023-05-10T02:44:41;17.17;;;7.60;;
41875;SDS011;27555;50.808;4.402;2023-05-10T02:47:10;14.35;;;7.65;;
41875;SDS011;27555;50.808;4.402;2023-05-10T02:49:36;17.42;;;8.55;;
41875;SDS011;27555;50.808;4.402;2023-05-10T02:52:02;17.05;;;7.65;;
41875;SDS011;27555;50.808;4.402;2023-05-10T02:54:39;13.18;;;6.88;;
41875;SDS011;27555;50.808;4.402;2023-05-10T02:57:09;13.38;;;7.18;;
41875;SDS011;27555;50.808;4.402;2023-05-10T02:59:40;14.60;;;7.95;;
41875;SDS011;27555;50.808;4.402;2023-05-10T03:02:07;15.75;;;8.07;;
41875;SDS011;27555;50.808;4.402;2023-05-10T03:04:34;17.20;;;8.60;;
41875;SDS011;27555;50.808;4.402;2023-05-10T03:07:00;18.13;;;9.10;;
41875;SDS011;27555;50.808;4.402;2023-05-10T03:09:26;15.65;;;8.43;;
41875;SDS011;27555;50.808;4.402;2023-05-10T03:11:56;15.95;;;8.18;;
41875;SDS011;27555;50.808;4.402;2023-05-10T03:14:57;17.10;;;9.35;;
41875;SDS011;27555;50.808;4.402;2023-05-10T03:20:06;18.20;;;8.35;;
41875;SDS011;27555;50.808;4.402;2023-05-10T03:22:47;20.58;;;10.18;;
41875;SDS011;27555;50.808;4.402;2023-05-10T03:25:17;29.08;;;9.98;;
41875;SDS011;27555;50.808;4.402;2023-05-10T03:27:45;26.75;;;10.30;;
41875;SDS011;27555;50.808;4.402;2023-05-10T03:30:12;23.27;;;11.10;;
41875;SDS011;27555;50.808;4.402;2023-05-10T03:32:39;18.95;;;9.38;;
41875;SDS011;27555;50.808;4.402;2023-05-10T03:35:08;19.40;;;9.57;;
41875;SDS011;27555;50.808;4.402;2023-05-10T03:37:34;18.83;;;10.52;;
41875;SDS011;27555;50.808;4.402;2023-05-10T03:40:00;20.40;;;10.10;;
41875;SDS011;27555;50.808;4.402;2023-05-10T03:42:27;23.85;;;11.23;;
41875;SDS011;27555;50.808;4.402;2023-05-10T03:44:52;22.95;;;10.70;;
41875;SDS011;27555;50.808;4.402;2023-05-10T03:47:18;17.75;;;10.43;;
41875;SDS011;27555;50.808;4.402;2023-05-10T03:49:43;21.50;;;11.50;;
41875;SDS011;27555;50.808;4.402;2023-05-10T03:52:09;27.23;;;11.93;;
41875;SDS011;27555;50.808;4.402;2023-05-10T03:54:35;20.90;;;10.77;;
41875;SDS011;27555;50.808;4.402;2023-05-10T03:57:00;22.67;;;12.38;;
41875;SDS011;27555;50.808;4.402;2023-05-10T03:59:26;24.52;;;11.45;;
41875;SDS011;27555;50.808;4.402;2023-05-10T04:01:52;23.88;;;12.30;;
41875;SDS011;27555;50.808;4.402;2023-05-10T04:04:17;26.92;;;11.13;;
41875;SDS011;27555;50.808;4.402;2023-05-10T04:06:45;21.35;;;9.52;;
41875;SDS011;27555;50.808;4.402;2023-05-10T04:09:11;22.27;;;12.45;;
41875;SDS011;27555;50.808;4.402;2023-05-10T04:11:36;24.13;;;12.10;;
41875;SDS011;27555;50.808;4.402;2023-05-10T04:14:02;23.08;;;11.48;;
41875;SDS011;27555;50.808;4.402;2023-05-10T04:16:28;26.27;;;12.75;;
41875;SDS011;27555;50.808;4.402;2023-05-10T04:18:53;29.50;;;12.77;;
41875;SDS011;27555;50.808;4.402;2023-05-10T04:21:19;24.80;;;11.68;;
41875;SDS011;27555;50.808;4.402;2023-05-10T04:23:45;31.90;;;12.75;;
41875;SDS011;27555;50.808;4.402;2023-05-10T04:26:10;27.20;;;12.65;;
41875;SDS011;27555;50.808;4.402;2023-05-10T04:28:36;25.58;;;12.20;;
41875;SDS011;27555;50.808;4.402;2023-05-10T04:31:02;25.65;;;12.68;;
41875;SDS011;27555;50.808;4.402;2023-05-10T04:33:29;28.67;;;12.88;;
41875;SDS011;27555;50.808;4.402;2023-05-10T04:35:55;25.55;;;12.48;;
41875;SDS011;27555;50.808;4.402;2023-05-10T04:38:21;26.17;;;12.90;;
41875;SDS011;27555;50.808;4.402;2023-05-10T04:40:46;27.02;;;12.52;;
41875;SDS011;27555;50.808;4.402;2023-05-10T04:43:12;22.60;;;11.75;;
41875;SDS011;27555;50.808;4.402;2023-05-10T04:45:38;22.20;;;10.85;;
41875;SDS011;27555;50.808;4.402;2023-05-10T04:48:03;20.25;;;9.95;;
41875;SDS011;27555;50.808;4.402;2023-05-10T04:50:29;15.40;;;7.97;;
41875;SDS011;27555;50.808;4.402;2023-05-10T04:52:55;13.73;;;6.57;;
41875;SDS011;27555;50.808;4.402;2023-05-10T04:55:20;14.43;;;7.30;;
41875;SDS011;27555;50.808;4.402;2023-05-10T04:57:46;12.95;;;7.93;;
41875;SDS011;27555;50.808;4.402;2023-05-10T05:00:12;14.30;;;8.02;;
41875;SDS011;27555;50.808;4.402;2023-05-10T05:02:38;15.43;;;6.82;;
41875;SDS011;27555;50.808;4.402;2023-05-10T05:05:07;11.32;;;5.97;;
41875;SDS011;27555;50.808;4.402;2023-05-10T05:07:33;13.63;;;6.90;;
41875;SDS011;27555;50.808;4.402;2023-05-10T05:09:58;12.52;;;6.55;;
41875;SDS011;27555;50.808;4.402;2023-05-10T05:12:24;13.27;;;6.15;;
41875;SDS011;27555;50.808;4.402;2023-05-10T05:14:50;12.07;;;6.25;;
41875;SDS011;27555;50.808;4.402;2023-05-10T05:17:15;11.85;;;7.10;;
41875;SDS011;27555;50.808;4.402;2023-05-10T05:19:41;15.63;;;7.18;;
41875;SDS011;27555;50.808;4.402;2023-05-10T05:22:06;12.73;;;7.43;;
41875;SDS011;27555;50.808;4.402;2023-05-10T05:24:36;11.13;;;6.85;;
41875;SDS011;27555;50.808;4.402;2023-05-10T05:27:05;12.15;;;8.00;;
41875;SDS011;27555;50.808;4.402;2023-05-10T05:29:31;14.73;;;8.25;;
41875;SDS011;27555;50.808;4.402;2023-05-10T05:31:56;14.32;;;8.23;;
41875;SDS011;27555;50.808;4.402;2023-05-10T05:34:22;14.48;;;8.10;;
41875;SDS011;27555;50.808;4.402;2023-05-10T05:36:48;15.85;;;8.52;;
41875;SDS011;27555;50.808;4.402;2023-05-10T05:39:13;19.08;;;8.27;;
41875;SDS011;27555;50.808;4.402;2023-05-10T05:41:39;15.73;;;8.20;;
41875;SDS011;27555;50.808;4.402;2023-05-10T05:44:05;15.07;;;7.82;;
41875;SDS011;27555;50.808;4.402;2023-05-10T05:46:30;11.30;;;7.63;;
41875;SDS011;27555;50.808;4.402;2023-05-10T05:48:56;13.98;;;6.57;;
41875;SDS011;27555;50.808;4.402;2023-05-10T05:51:22;11.20;;;5.43;;
41875;SDS011;27555;50.808;4.402;2023-05-10T05:53:47;12.10;;;5.53;;
41875;SDS011;27555;50.808;4.402;2023-05-10T05:56:13;7.90;;;4.55;;
41875;SDS011;27555;50.808;4.402;2023-05-10T05:58:39;7.40;;;4.40;;
41875;SDS011;27555;50.808;4.402;2023-05-10T06:01:04;11.25;;;5.57;;
41875;SDS011;27555;50.808;4.402;2023-05-10T06:03:30;8.82;;;4.65;;
41875;SDS011;27555;50.808;4.402;2023-05-10T06:05:56;10.57;;;4.72;;
41875;SDS011;27555;50.808;4.402;2023-05-10T06:08:21;14.13;;;4.30;;
41875;SDS011;27555;50.808;4.402;2023-05-10T06:10:47;8.35;;;4.30;;
41875;SDS011;27555;50.808;4.402;2023-05-10T06:13:13;12.70;;;4.20;;
41875;SDS011;27555;50.808;4.402;2023-05-10T06:15:39;9.43;;;4.22;;
41875;SDS011;27555;50.808;4.402;2023-05-10T06:18:13;10.40;;;4.72;;
41875;SDS011;27555;50.808;4.402;2023-05-10T06:20:38;15.15;;;5.13;;
41875;SDS011;27555;50.808;4.402;2023-05-10T06:23:06;12.40;;;4.78;;
41875;SDS011;27555;50.808;4.402;2023-05-10T06:25:32;9.98;;;5.13;;
41875;SDS011;27555;50.808;4.402;2023-05-10T06:27:59;13.77;;;4.68;;
41875;SDS011;27555;50.808;4.402;2023-05-10T06:30:25;10.43;;;4.40;;
41875;SDS011;27555;50.808;4.402;2023-05-10T06:32:53;13.77;;;5.10;;
41875;SDS011;27555;50.808;4.402;2023-05-10T06:35:19;25.40;;;14.55;;
41875;SDS011;27555;50.808;4.402;2023-05-10T06:37:45;9.15;;;4.47;;
41875;SDS011;27555;50.808;4.402;2023-05-10T06:40:11;9.70;;;3.72;;
41875;SDS011;27555;50.808;4.402;2023-05-10T06:42:37;8.77;;;5.05;;
41875;SDS011;27555;50.808;4.402;2023-05-10T06:45:03;8.20;;;4.45;;
41875;SDS011;27555;50.808;4.402;2023-05-10T06:47:29;6.60;;;3.70;;
41875;SDS011;27555;50.808;4.402;2023-05-10T06:49:54;3.40;;;2.75;;
41875;SDS011;27555;50.808;4.402;2023-05-10T06:52:20;4.43;;;2.72;;
41875;SDS011;27555;50.808;4.402;2023-05-10T06:54:46;6.18;;;2.72;;
41875;SDS011;27555;50.808;4.402;2023-05-10T06:57:12;4.22;;;3.03;;
41875;SDS011;27555;50.808;4.402;2023-05-10T06:59:37;4.40;;;3.10;;
41875;SDS011;27555;50.808;4.402;2023-05-10T07:02:03;5.72;;;3.50;;
41875;SDS011;27555;50.808;4.402;2023-05-10T07:04:28;7.53;;;3.55;;
41875;SDS011;27555;50.808;4.402;2023-05-10T07:06:54;5.43;;;3.13;;
41875;SDS011;27555;50.808;4.402;2023-05-10T07:09:20;6.63;;;3.42;;
41875;SDS011;27555;50.808;4.402;2023-05-10T07:11:45;6.70;;;3.55;;
41875;SDS011;27555;50.808;4.402;2023-05-10T07:14:11;8.15;;;4.30;;
41875;SDS011;27555;50.808;4.402;2023-05-10T07:16:37;13.48;;;4.68;;
41875;SDS011;27555;50.808;4.402;2023-05-10T07:19:02;12.57;;;5.05;;
41875;SDS011;27555;50.808;4.402;2023-05-10T07:21:30;9.73;;;4.47;;
41875;SDS011;27555;50.808;4.402;2023-05-10T07:23:56;11.88;;;5.90;;
41875;SDS011;27555;50.808;4.402;2023-05-10T07:26:21;10.18;;;5.15;;
41875;SDS011;27555;50.808;4.402;2023-05-10T07:28:47;7.90;;;5.10;;
41875;SDS011;27555;50.808;4.402;2023-05-10T07:31:13;9.38;;;4.72;;
41875;SDS011;27555;50.808;4.402;2023-05-10T07:33:41;10.23;;;5.78;;
41875;SDS011;27555;50.808;4.402;2023-05-10T07:36:08;10.65;;;5.07;;
41875;SDS011;27555;50.808;4.402;2023-05-10T07:38:35;11.25;;;5.80;;
41875;SDS011;27555;50.808;4.402;2023-05-10T07:41:00;12.73;;;5.80;;
41875;SDS011;27555;50.808;4.402;2023-05-10T07:43:26;17.70;;;6.18;;
41875;SDS011;27555;50.808;4.402;2023-05-10T07:45:52;8.68;;;5.35;;
41875;SDS011;27555;50.808;4.402;2023-05-10T07:48:18;8.43;;;4.50;;
41875;SDS011;27555;50.808;4.402;2023-05-10T07:50:43;13.40;;;4.97;;
41875;SDS011;27555;50.808;4.402;2023-05-10T07:53:09;7.70;;;4.97;;
41875;SDS011;27555;50.808;4.402;2023-05-10T07:55:35;9.32;;;5.10;;
41875;SDS011;27555;50.808;4.402;2023-05-10T07:58:00;11.27;;;5.45;;
41875;SDS011;27555;50.808;4.402;2023-05-10T08:00:26;6.80;;;4.82;;
41875;SDS011;27555;50.808;4.402;2023-05-10T08:02:52;6.90;;;4.28;;
41875;SDS011;27555;50.808;4.402;2023-05-10T08:05:18;7.80;;;4.38;;
41875;SDS011;27555;50.808;4.402;2023-05-10T08:07:43;6.50;;;3.95;;
41875;SDS011;27555;50.808;4.402;2023-05-10T08:10:09;11.60;;;4.00;;
41875;SDS011;27555;50.808;4.402;2023-05-10T08:12:38;6.57;;;3.72;;
41875;SDS011;27555;50.808;4.402;2023-05-10T08:15:05;6.47;;;3.67;;
41875;SDS011;27555;50.808;4.402;2023-05-10T08:17:32;8.63;;;4.28;;
41875;SDS011;27555;50.808;4.402;2023-05-10T08:19:57;5.38;;;2.97;;
41875;SDS011;27555;50.808;4.402;2023-05-10T08:22:23;6.65;;;3.92;;
41875;SDS011;27555;50.808;4.402;2023-05-10T08:27:16;7.68;;;3.15;;
41875;SDS011;27555;50.808;4.402;2023-05-10T08:29:42;13.23;;;3.55;;
41875;SDS011;27555;50.808;4.402;2023-05-10T08:32:08;5.32;;;2.92;;
41875;SDS011;27555;50.808;4.402;2023-05-10T08:34:33;4.95;;;3.15;;
41875;SDS011;27555;50.808;4.402;2023-05-10T08:36:59;3.50;;;2.45;;
41875;SDS011;27555;50.808;4.402;2023-05-10T08:39:24;4.80;;;2.80;;
41875;SDS011;27555;50.808;4.402;2023-05-10T08:41:50;5.30;;;3.15;;
41875;SDS011;27555;50.808;4.402;2023-05-10T08:44:17;11.48;;;4.10;;
41875;SDS011;27555;50.808;4.402;2023-05-10T08:46:45;7.13;;;3.30;;
41875;SDS011;27555;50.808;4.402;2023-05-10T08:49:16;4.32;;;2.67;;
41875;SDS011;27555;50.808;4.402;2023-05-10T08:51:44;7.32;;;3.00;;
41875;SDS011;27555;50.808;4.402;2023-05-10T08:54:14;4.40;;;3.17;;
41875;SDS011;27555;50.808;4.402;2023-05-10T08:56:45;4.55;;;2.97;;
41875;SDS011;27555;50.808;4.402;2023-05-10T08:59:11;12.25;;;3.92;;
41875;SDS011;27555;50.808;4.402;2023-05-10T09:01:38;5.25;;;3.15;;
41875;SDS011;27555;50.808;4.402;2023-05-10T09:04:05;5.28;;;3.75;;
41875;SDS011;27555;50.808;4.402;2023-05-10T09:06:30;5.88;;;3.45;;
41875;SDS011;27555;50.808;4.402;2023-05-10T09:08:57;13.32;;;7.95;;
41875;SDS011;27555;50.808;4.402;2023-05-10T09:11:23;6.32;;;3.80;;
41875;SDS011;27555;50.808;4.402;2023-05-10T09:13:49;6.35;;;3.38;;
41875;SDS011;27555;50.808;4.402;2023-05-10T09:16:17;8.52;;;4.43;;
41875;SDS011;27555;50.808;4.402;2023-05-10T09:18:42;6.85;;;3.75;;
41875;SDS011;27555;50.808;4.402;2023-05-10T09:21:08;7.07;;;4.55;;
41875;SDS011;27555;50.808;4.402;2023-05-10T09:23:35;6.95;;;3.60;;
41875;SDS011;27555;50.808;4.402;2023-05-10T09:26:04;4.13;;;2.90;;
41875;SDS011;27555;50.808;4.402;2023-05-10T09:31:17;5.45;;;3.42;;
41875;SDS011;27555;50.808;4.402;2023-05-10T09:33:46;8.55;;;3.20;;
41875;SDS011;27555;50.808;4.402;2023-05-10T09:36:13;6.85;;;3.92;;
41875;SDS011;27555;50.808;4.402;2023-05-10T09:38:48;4.70;;;3.03;;
41875;SDS011;27555;50.808;4.402;2023-05-10T09:41:23;5.13;;;3.17;;
41875;SDS011;27555;50.808;4.402;2023-05-10T09:43:49;4.57;;;3.40;;
41875;SDS011;27555;50.808;4.402;2023-05-10T09:48:46;6.55;;;2.70;;
41875;SDS011;27555;50.808;4.402;2023-05-10T09:51:45;3.95;;;2.75;;
41875;SDS011;27555;50.808;4.402;2023-05-10T09:54:14;3.80;;;2.85;;
41875;SDS011;27555;50.808;4.402;2023-05-10T09:56:41;4.55;;;2.40;;
41875;SDS011;27555;50.808;4.402;2023-05-10T09:59:09;3.90;;;2.70;;
41875;SDS011;27555;50.808;4.402;2023-05-10T10:01:36;2.43;;;2.10;;
41875;SDS011;27555;50.808;4.402;2023-05-10T10:04:03;2.10;;;1.75;;
41875;SDS011;27555;50.808;4.402;2023-05-10T10:06:34;3.40;;;2.55;;
41875;SDS011;27555;50.808;4.402;2023-05-10T10:09:06;2.78;;;2.40;;
41875;SDS011;27555;50.808;4.402;2023-05-10T10:11:36;6.50;;;2.80;;
41875;SDS011;27555;50.808;4.402;2023-05-10T10:14:03;4.70;;;1.92;;
41875;SDS011;27555;50.808;4.402;2023-05-10T10:16:30;6.90;;;2.55;;
41875;SDS011;27555;50.808;4.402;2023-05-10T10:18:56;2.35;;;1.98;;
41875;SDS011;27555;50.808;4.402;2023-05-10T10:21:22;6.95;;;1.90;;
41875;SDS011;27555;50.808;4.402;2023-05-10T10:23:49;3.88;;;1.98;;
41875;SDS011;27555;50.808;4.402;2023-05-10T10:26:15;6.88;;;2.00;;
41875;SDS011;27555;50.808;4.402;2023-05-10T10:36:31;2.38;;;1.92;;
41875;SDS011;27555;50.808;4.402;2023-05-10T10:39:17;2.58;;;1.83;;
41875;SDS011;27555;50.808;4.402;2023-05-10T10:41:51;2.83;;;2.00;;
41875;SDS011;27555;50.808;4.402;2023-05-10T10:57:31;2.70;;;2.22;;
41875;SDS011;27555;50.808;4.402;2023-05-10T11:00:18;2.20;;;1.92;;
41875;SDS011;27555;50.808;4.402;2023-05-10T11:03:06;3.70;;;2.83;;
41875;SDS011;27555;50.808;4.402;2023-05-10T11:05:37;4.50;;;2.70;;
41875;SDS011;27555;50.808;4.402;2023-05-10T11:08:15;4.45;;;2.88;;
41875;SDS011;27555;50.808;4.402;2023-05-10T11:10:51;3.60;;;2.30;;
41875;SDS011;27555;50.808;4.402;2023-05-10T11:13:17;3.38;;;2.30;;
41875;SDS011;27555;50.808;4.402;2023-05-10T11:16:09;4.45;;;2.55;;
41875;SDS011;27555;50.808;4.402;2023-05-10T11:21:21;2.70;;;2.13;;
41875;SDS011;27555;50.808;4.402;2023-05-10T11:23:51;2.53;;;1.80;;
41875;SDS011;27555;50.808;4.402;2023-05-10T11:26:21;2.85;;;2.03;;
41875;SDS011;27555;50.808;4.402;2023-05-10T11:28:51;4.72;;;2.22;;
41875;SDS011;27555;50.808;4.402;2023-05-10T11:31:20;2.95;;;2.25;;
41875;SDS011;27555;50.808;4.402;2023-05-10T11:33:47;3.83;;;2.28;;
41875;SDS011;27555;50.808;4.402;2023-05-10T11:36:15;2.63;;;1.90;;
41875;SDS011;27555;50.808;4.402;2023-05-10T11:38:45;2.83;;;1.95;;
41875;SDS011;27555;50.808;4.402;2023-05-10T11:41:11;3.08;;;1.85;;
41875;SDS011;27555;50.808;4.402;2023-05-10T11:43:40;4.20;;;2.33;;
41875;SDS011;27555;50.808;4.402;2023-05-10T11:46:07;4.65;;;2.72;;
41875;SDS011;27555;50.808;4.402;2023-05-10T11:48:35;2.67;;;1.92;;
41875;SDS011;27555;50.808;4.402;2023-05-10T11:51:01;2.70;;;2.03;;
41875;SDS011;27555;50.808;4.402;2023-05-10T11:53:34;3.63;;;2.17;;
41875;SDS011;27555;50.808;4.402;2023-05-10T11:56:07;3.60;;;2.15;;
41875;SDS011;27555;50.808;4.402;2023-05-10T11:58:34;2.90;;;2.03;;
41875;SDS011;27555;50.808;4.402;2023-05-10T12:01:02;3.97;;;2.40;;
41875;SDS011;27555;50.808;4.402;2023-05-10T12:03:29;2.50;;;2.05;;
41875;SDS011;27555;50.808;4.402;2023-05-10T12:05:56;6.93;;;2.22;;
41875;SDS011;27555;50.808;4.402;2023-05-10T12:08:23;4.97;;;2.25;;
41875;SDS011;27555;50.808;4.402;2023-05-10T12:10:51;3.08;;;1.63;;
41875;SDS011;27555;50.808;4.402;2023-05-10T12:13:17;4.82;;;2.63;;
41875;SDS011;27555;50.808;4.402;2023-05-10T12:15:44;4.60;;;1.80;;
41875;SDS011;27555;50.808;4.402;2023-05-10T12:18:11;4.63;;;2.13;;
41875;SDS011;27555;50.808;4.402;2023-05-10T12:20:38;4.20;;;2.25;;
41875;SDS011;27555;50.808;4.402;2023-05-10T12:23:05;2.83;;;2.38;;
41875;SDS011;27555;50.808;4.402;2023-05-10T12:25:33;2.42;;;2.10;;
41875;SDS011;27555;50.808;4.402;2023-05-10T12:28:00;3.58;;;2.28;;
41875;SDS011;27555;50.808;4.402;2023-05-10T12:30:30;2.30;;;2.00;;
41875;SDS011;27555;50.808;4.402;2023-05-10T12:33:01;4.82;;;2.30;;
41875;SDS011;27555;50.808;4.402;2023-05-10T12:35:32;3.08;;;2.20;;
41875;SDS011;27555;50.808;4.402;2023-05-10T12:37:59;3.38;;;2.55;;
41875;SDS011;27555;50.808;4.402;2023-05-10T12:40:24;5.57;;;2.60;;
41875;SDS011;27555;50.808;4.402;2023-05-10T12:42:50;4.30;;;2.15;;
41875;SDS011;27555;50.808;4.402;2023-05-10T12:45:17;4.57;;;2.28;;
41875;SDS011;27555;50.808;4.402;2023-05-10T12:47:43;3.55;;;2.30;;
41875;SDS011;27555;50.808;4.402;2023-05-10T12:50:09;3.65;;;2.42;;
41875;SDS011;27555;50.808;4.402;2023-05-10T12:52:35;3.97;;;2.55;;
41875;SDS011;27555;50.808;4.402;2023-05-10T12:55:01;4.78;;;3.20;;
41875;SDS011;27555;50.808;4.402;2023-05-10T12:57:28;4.32;;;2.47;;
41875;SDS011;27555;50.808;4.402;2023-05-10T12:59:54;5.15;;;2.70;;
41875;SDS011;27555;50.808;4.402;2023-05-10T13:02:20;4.85;;;3.17;;
41875;SDS011;27555;50.808;4.402;2023-05-10T13:04:47;6.15;;;2.72;;
41875;SDS011;27555;50.808;4.402;2023-05-10T13:07:13;6.55;;;3.15;;
41875;SDS011;27555;50.808;4.402;2023-05-10T13:09:39;4.38;;;3.00;;
41875;SDS011;27555;50.808;4.402;2023-05-10T13:12:05;6.13;;;3.42;;
41875;SDS011;27555;50.808;4.402;2023-05-10T13:14:30;6.15;;;2.90;;
41875;SDS011;27555;50.808;4.402;2023-05-10T13:16:56;4.22;;;3.00;;
41875;SDS011;27555;50.808;4.402;2023-05-10T13:19:22;6.68;;;2.63;;
41875;SDS011;27555;50.808;4.402;2023-05-10T13:21:47;3.72;;;2.63;;
41875;SDS011;27555;50.808;4.402;2023-05-10T13:24:14;5.65;;;2.60;;
41875;SDS011;27555;50.808;4.402;2023-05-10T13:26:40;3.47;;;2.30;;
41875;SDS011;27555;50.808;4.402;2023-05-10T13:29:06;4.60;;;2.42;;
41875;SDS011;27555;50.808;4.402;2023-05-10T13:31:32;5.70;;;2.38;;
41875;SDS011;27555;50.808;4.402;2023-05-10T13:33:59;2.70;;;2.22;;
41875;SDS011;27555;50.808;4.402;2023-05-10T13:36:25;2.90;;;2.42;;
41875;SDS011;27555;50.808;4.402;2023-05-10T13:38:51;4.85;;;2.42;;
41875;SDS011;27555;50.808;4.402;2023-05-10T13:41:18;2.65;;;1.85;;
41875;SDS011;27555;50.808;4.402;2023-05-10T13:43:46;2.10;;;1.90;;
41875;SDS011;27555;50.808;4.402;2023-05-10T13:46:13;6.25;;;2.60;;
41875;SDS011;27555;50.808;4.402;2023-05-10T13:48:39;5.45;;;2.58;;
41875;SDS011;27555;50.808;4.402;2023-05-10T13:51:05;6.20;;;3.10;;
41875;SDS011;27555;50.808;4.402;2023-05-10T13:53:30;9.85;;;3.00;;
41875;SDS011;27555;50.808;4.402;2023-05-10T13:55:58;6.70;;;3.35;;
41875;SDS011;27555;50.808;4.402;2023-05-10T13:58:23;5.60;;;3.50;;
41875;SDS011;27555;50.808;4.402;2023-05-10T14:00:49;6.65;;;3.63;;
41875;SDS011;27555;50.808;4.402;2023-05-10T14:03:15;3.72;;;2.90;;
41875;SDS011;27555;50.808;4.402;2023-05-10T14:05:41;8.85;;;4.38;;
41875;SDS011;27555;50.808;4.402;2023-05-10T14:08:06;7.00;;;4.18;;
41875;SDS011;27555;50.808;4.402;2023-05-10T14:10:34;8.25;;;5.15;;
41875;SDS011;27555;50.808;4.402;2023-05-10T14:12:59;8.88;;;5.35;;
41875;SDS011;27555;50.808;4.402;2023-05-10T14:15:26;9.57;;;5.57;;
41875;SDS011;27555;50.808;4.402;2023-05-10T14:17:51;7.43;;;5.82;;
41875;SDS011;27555;50.808;4.402;2023-05-10T14:20:17;10.05;;;5.68;;
41875;SDS011;27555;50.808;4.402;2023-05-10T14:22:43;8.90;;;5.38;;
41875;SDS011;27555;50.808;4.402;2023-05-10T14:25:08;10.82;;;5.60;;
41875;SDS011;27555;50.808;4.402;2023-05-10T14:27:34;9.77;;;6.05;;
41875;SDS011;27555;50.808;4.402;2023-05-10T14:30:00;9.70;;;5.38;;
41875;SDS011;27555;50.808;4.402;2023-05-10T14:32:25;10.32;;;6.60;;
41875;SDS011;27555;50.808;4.402;2023-05-10T14:34:52;10.27;;;6.97;;
41875;SDS011;27555;50.808;4.402;2023-05-10T14:37:18;13.05;;;6.97;;
41875;SDS011;27555;50.808;4.402;2023-05-10T14:39:43;14.63;;;6.65;;
41875;SDS011;27555;50.808;4.402;2023-05-10T14:42:09;9.05;;;5.57;;
41875;SDS011;27555;50.808;4.402;2023-05-10T14:44:35;8.38;;;5.85;;
41875;SDS011;27555;50.808;4.402;2023-05-10T14:47:00;9.38;;;6.30;;
41875;SDS011;27555;50.808;4.402;2023-05-10T14:49:26;11.82;;;6.03;;
41875;SDS011;27555;50.808;4.402;2023-05-10T14:51:52;10.80;;;5.95;;
41875;SDS011;27555;50.808;4.402;2023-05-10T14:54:18;19.42;;;6.80;;
41875;SDS011;27555;50.808;4.402;2023-05-10T14:56:43;11.00;;;5.95;;
41875;SDS011;27555;50.808;4.402;2023-05-10T14:59:10;12.07;;;7.97;;
41875;SDS011;27555;50.808;4.402;2023-05-10T15:01:35;10.27;;;7.25;;
41875;SDS011;27555;50.808;4.402;2023-05-10T15:04:03;10.63;;;6.97;;
41875;SDS011;27555;50.808;4.402;2023-05-10T15:06:32;8.35;;;5.85;;
41875;SDS011;27555;50.808;4.402;2023-05-10T15:09:01;14.70;;;6.57;;
41875;SDS011;27555;50.808;4.402;2023-05-10T15:11:28;11.40;;;6.32;;
41875;SDS011;27555;50.808;4.402;2023-05-10T15:13:54;11.20;;;6.20;;
41875;SDS011;27555;50.808;4.402;2023-05-10T15:16:20;9.10;;;4.97;;
41875;SDS011;27555;50.808;4.402;2023-05-10T15:18:46;9.55;;;5.00;;
41875;SDS011;27555;50.808;4.402;2023-05-10T15:21:11;8.15;;;4.15;;
41875;SDS011;27555;50.808;4.402;2023-05-10T15:23:37;8.93;;;4.13;;
41875;SDS011;27555;50.808;4.402;2023-05-10T15:26:04;10.05;;;3.92;;
41875;SDS011;27555;50.808;4.402;2023-05-10T15:28:31;9.23;;;4.15;;